sensor_id;sensor_type;location;lat;lon;timestamp;P1;durP1;ratioP1;P2;durP2;ratioP2
7783;SDS011;19359;51.402;6.778;2023-07-24T00:00:59;729.92;;;426.42;;
7783;SDS011;19359;51.402;6.778;2023-07-24T00:03:26;728.88;;;429.15;;
7783;SDS011;19359;51.402;6.778;2023-07-24T00:05:52;725.88;;;421.95;;
7783;SDS011;19359;51.402;6.778;2023-07-24T00:08:20;727.58;;;423.25;;
7783;SDS011;19359;51.402;6.778;2023-07-24T00:10:46;726.20;;;426.52;;
7783;SDS011;19359;51.402;6.778;2023-07-24T00:13:14;728.42;;;435.60;;
7783;SDS011;19359;51.402;6.778;2023-07-24T00:15:41;725.17;;;422.48;;
7783;SDS011;19359;51.402;6.778;2023-07-24T00:18:08;727.50;;;431.00;;
7783;SDS011;19359;51.402;6.778;2023-07-24T00:20:35;728.97;;;433.25;;
7783;SDS011;19359;51.402;6.778;2023-07-24T00:23:02;725.35;;;425.02;;
7783;SDS011;19359;51.402;6.778;2023-07-24T00:25:29;728.35;;;423.65;;
7783;SDS011;19359;51.402;6.778;2023-07-24T00:27:56;722.97;;;422.60;;
7783;SDS011;19359;51.402;6.778;2023-07-24T00:30:24;728.80;;;430.42;;
7783;SDS011;19359;51.402;6.778;2023-07-24T00:32:51;729.30;;;425.27;;
7783;SDS011;19359;51.402;6.778;2023-07-24T00:35:17;729.25;;;426.88;;
7783;SDS011;19359;51.402;6.778;2023-07-24T00:37:44;732.03;;;433.70;;
7783;SDS011;19359;51.402;6.778;2023-07-24T00:40:11;732.55;;;434.85;;
7783;SDS011;19359;51.402;6.778;2023-07-24T00:42:38;727.25;;;429.45;;
7783;SDS011;19359;51.402;6.778;2023-07-24T00:45:05;723.95;;;419.77;;
7783;SDS011;19359;51.402;6.778;2023-07-24T00:47:35;722.53;;;414.60;;
7783;SDS011;19359;51.402;6.778;2023-07-24T00:50:02;724.63;;;422.08;;
7783;SDS011;19359;51.402;6.778;2023-07-24T00:52:29;737.47;;;428.40;;
7783;SDS011;19359;51.402;6.778;2023-07-24T00:54:56;721.60;;;411.17;;
7783;SDS011;19359;51.402;6.778;2023-07-24T00:57:23;724.90;;;414.95;;
7783;SDS011;19359;51.402;6.778;2023-07-24T00:59:50;723.33;;;416.83;;
7783;SDS011;19359;51.402;6.778;2023-07-24T01:02:17;722.10;;;414.67;;
7783;SDS011;19359;51.402;6.778;2023-07-24T01:04:46;727.60;;;430.02;;
7783;SDS011;19359;51.402;6.778;2023-07-24T01:07:13;722.75;;;416.90;;
7783;SDS011;19359;51.402;6.778;2023-07-24T01:09:41;721.40;;;406.70;;
7783;SDS011;19359;51.402;6.778;2023-07-24T01:12:10;719.05;;;399.42;;
7783;SDS011;19359;51.402;6.778;2023-07-24T01:14:42;721.97;;;406.70;;
7783;SDS011;19359;51.402;6.778;2023-07-24T01:17:10;718.17;;;399.92;;
7783;SDS011;19359;51.402;6.778;2023-07-24T01:19:42;717.63;;;400.27;;
7783;SDS011;19359;51.402;6.778;2023-07-24T01:22:24;715.15;;;398.80;;
7783;SDS011;19359;51.402;6.778;2023-07-24T01:25:04;729.40;;;424.38;;
7783;SDS011;19359;51.402;6.778;2023-07-24T01:27:37;727.22;;;412.63;;
7783;SDS011;19359;51.402;6.778;2023-07-24T01:30:07;717.67;;;391.08;;
7783;SDS011;19359;51.402;6.778;2023-07-24T01:32:34;715.55;;;398.67;;
7783;SDS011;19359;51.402;6.778;2023-07-24T01:35:01;721.15;;;410.25;;
7783;SDS011;19359;51.402;6.778;2023-07-24T01:37:29;718.88;;;405.25;;
7783;SDS011;19359;51.402;6.778;2023-07-24T01:39:57;721.90;;;405.48;;
7783;SDS011;19359;51.402;6.778;2023-07-24T01:42:24;715.88;;;396.50;;
7783;SDS011;19359;51.402;6.778;2023-07-24T01:44:53;713.20;;;393.25;;
7783;SDS011;19359;51.402;6.778;2023-07-24T01:47:21;715.50;;;401.45;;
7783;SDS011;19359;51.402;6.778;2023-07-24T01:49:48;715.40;;;402.38;;
7783;SDS011;19359;51.402;6.778;2023-07-24T01:52:15;715.45;;;394.48;;
7783;SDS011;19359;51.402;6.778;2023-07-24T01:54:42;713.83;;;399.73;;
7783;SDS011;19359;51.402;6.778;2023-07-24T01:57:08;718.67;;;410.98;;
7783;SDS011;19359;51.402;6.778;2023-07-24T01:59:35;715.53;;;393.80;;
7783;SDS011;19359;51.402;6.778;2023-07-24T02:02:03;734.33;;;418.42;;
7783;SDS011;19359;51.402;6.778;2023-07-24T02:04:31;718.67;;;404.75;;
7783;SDS011;19359;51.402;6.778;2023-07-24T02:06:57;712.45;;;395.52;;
7783;SDS011;19359;51.402;6.778;2023-07-24T02:09:24;723.53;;;416.58;;
7783;SDS011;19359;51.402;6.778;2023-07-24T02:11:51;713.67;;;399.50;;
7783;SDS011;19359;51.402;6.778;2023-07-24T02:14:18;713.75;;;402.05;;
7783;SDS011;19359;51.402;6.778;2023-07-24T02:16:45;714.40;;;398.27;;
7783;SDS011;19359;51.402;6.778;2023-07-24T02:19:14;717.42;;;411.60;;
7783;SDS011;19359;51.402;6.778;2023-07-24T02:21:41;713.13;;;402.25;;
7783;SDS011;19359;51.402;6.778;2023-07-24T02:24:07;715.33;;;407.90;;
7783;SDS011;19359;51.402;6.778;2023-07-24T02:26:34;711.22;;;396.08;;
7783;SDS011;19359;51.402;6.778;2023-07-24T02:29:01;710.95;;;400.92;;
7783;SDS011;19359;51.402;6.778;2023-07-24T02:31:27;714.58;;;417.45;;
7783;SDS011;19359;51.402;6.778;2023-07-24T02:33:54;715.65;;;399.45;;
7783;SDS011;19359;51.402;6.778;2023-07-24T02:36:22;713.42;;;392.35;;
7783;SDS011;19359;51.402;6.778;2023-07-24T02:38:49;717.17;;;410.70;;
7783;SDS011;19359;51.402;6.778;2023-07-24T02:41:16;719.78;;;415.23;;
7783;SDS011;19359;51.402;6.778;2023-07-24T02:43:43;715.85;;;410.15;;
7783;SDS011;19359;51.402;6.778;2023-07-24T02:46:10;716.33;;;411.00;;
7783;SDS011;19359;51.402;6.778;2023-07-24T02:48:37;712.85;;;401.13;;
7783;SDS011;19359;51.402;6.778;2023-07-24T02:51:04;717.67;;;424.10;;
7783;SDS011;19359;51.402;6.778;2023-07-24T02:53:32;713.40;;;404.67;;
7783;SDS011;19359;51.402;6.778;2023-07-24T02:56:00;718.08;;;420.20;;
7783;SDS011;19359;51.402;6.778;2023-07-24T02:58:27;713.92;;;411.25;;
7783;SDS011;19359;51.402;6.778;2023-07-24T03:00:54;717.75;;;419.30;;
7783;SDS011;19359;51.402;6.778;2023-07-24T03:03:28;712.80;;;407.83;;
7783;SDS011;19359;51.402;6.778;2023-07-24T03:05:57;718.47;;;425.02;;
7783;SDS011;19359;51.402;6.778;2023-07-24T03:08:24;719.78;;;421.80;;
7783;SDS011;19359;51.402;6.778;2023-07-24T03:10:52;724.75;;;435.30;;
7783;SDS011;19359;51.402;6.778;2023-07-24T03:13:19;724.58;;;417.85;;
7783;SDS011;19359;51.402;6.778;2023-07-24T03:15:51;722.30;;;424.42;;
7783;SDS011;19359;51.402;6.778;2023-07-24T03:18:19;723.70;;;432.88;;
7783;SDS011;19359;51.402;6.778;2023-07-24T03:20:46;718.80;;;419.40;;
7783;SDS011;19359;51.402;6.778;2023-07-24T03:23:13;721.45;;;426.17;;
7783;SDS011;19359;51.402;6.778;2023-07-24T03:25:39;723.10;;;422.85;;
7783;SDS011;19359;51.402;6.778;2023-07-24T03:28:08;725.33;;;429.58;;
7783;SDS011;19359;51.402;6.778;2023-07-24T03:30:35;718.92;;;420.98;;
7783;SDS011;19359;51.402;6.778;2023-07-24T03:33:01;723.80;;;438.58;;
7783;SDS011;19359;51.402;6.778;2023-07-24T03:35:28;725.35;;;432.40;;
7783;SDS011;19359;51.402;6.778;2023-07-24T03:37:55;721.30;;;421.65;;
7783;SDS011;19359;51.402;6.778;2023-07-24T03:40:22;724.60;;;432.63;;
7783;SDS011;19359;51.402;6.778;2023-07-24T03:42:48;722.13;;;430.40;;
7783;SDS011;19359;51.402;6.778;2023-07-24T03:45:17;728.35;;;420.67;;
7783;SDS011;19359;51.402;6.778;2023-07-24T03:47:44;726.33;;;422.35;;
7783;SDS011;19359;51.402;6.778;2023-07-24T03:50:11;720.42;;;417.83;;
7783;SDS011;19359;51.402;6.778;2023-07-24T03:52:38;726.33;;;435.33;;
7783;SDS011;19359;51.402;6.778;2023-07-24T03:55:05;724.17;;;432.42;;
7783;SDS011;19359;51.402;6.778;2023-07-24T03:57:32;722.75;;;421.95;;
7783;SDS011;19359;51.402;6.778;2023-07-24T03:59:59;728.40;;;431.73;;
7783;SDS011;19359;51.402;6.778;2023-07-24T04:02:27;735.40;;;448.35;;
7783;SDS011;19359;51.402;6.778;2023-07-24T04:04:54;723.03;;;428.70;;
7783;SDS011;19359;51.402;6.778;2023-07-24T04:07:21;728.60;;;423.45;;
7783;SDS011;19359;51.402;6.778;2023-07-24T04:09:48;728.42;;;427.48;;
7783;SDS011;19359;51.402;6.778;2023-07-24T04:12:15;729.97;;;438.88;;
7783;SDS011;19359;51.402;6.778;2023-07-24T04:14:41;724.83;;;427.33;;
7783;SDS011;19359;51.402;6.778;2023-07-24T04:17:09;728.17;;;420.05;;
7783;SDS011;19359;51.402;6.778;2023-07-24T04:19:37;729.72;;;432.75;;
7783;SDS011;19359;51.402;6.778;2023-07-24T04:22:04;725.90;;;427.60;;
7783;SDS011;19359;51.402;6.778;2023-07-24T04:24:31;730.30;;;426.67;;
7783;SDS011;19359;51.402;6.778;2023-07-24T04:26:58;727.42;;;421.85;;
7783;SDS011;19359;51.402;6.778;2023-07-24T04:29:25;731.97;;;430.75;;
7783;SDS011;19359;51.402;6.778;2023-07-24T04:31:52;741.15;;;432.63;;
7783;SDS011;19359;51.402;6.778;2023-07-24T04:34:19;736.38;;;424.08;;
7783;SDS011;19359;51.402;6.778;2023-07-24T04:36:47;725.72;;;419.40;;
7783;SDS011;19359;51.402;6.778;2023-07-24T04:39:14;724.25;;;418.20;;
7783;SDS011;19359;51.402;6.778;2023-07-24T04:41:41;722.95;;;415.48;;
7783;SDS011;19359;51.402;6.778;2023-07-24T04:44:08;728.03;;;417.27;;
7783;SDS011;19359;51.402;6.778;2023-07-24T04:46:35;722.25;;;418.25;;
7783;SDS011;19359;51.402;6.778;2023-07-24T04:49:01;724.80;;;425.67;;
7783;SDS011;19359;51.402;6.778;2023-07-24T04:51:28;729.95;;;426.88;;
7783;SDS011;19359;51.402;6.778;2023-07-24T04:53:56;729.25;;;432.15;;
7783;SDS011;19359;51.402;6.778;2023-07-24T04:56:23;722.00;;;419.42;;
7783;SDS011;19359;51.402;6.778;2023-07-24T04:58:50;726.50;;;423.65;;
7783;SDS011;19359;51.402;6.778;2023-07-24T05:01:16;721.13;;;418.00;;
7783;SDS011;19359;51.402;6.778;2023-07-24T05:03:43;723.92;;;424.63;;
7783;SDS011;19359;51.402;6.778;2023-07-24T05:06:10;729.55;;;427.25;;
7783;SDS011;19359;51.402;6.778;2023-07-24T05:08:37;726.00;;;425.25;;
7783;SDS011;19359;51.402;6.778;2023-07-24T05:11:05;730.50;;;428.73;;
7783;SDS011;19359;51.402;6.778;2023-07-24T05:13:32;729.38;;;442.13;;
7783;SDS011;19359;51.402;6.778;2023-07-24T05:15:59;730.22;;;435.90;;
7783;SDS011;19359;51.402;6.778;2023-07-24T05:18:26;726.20;;;436.25;;
7783;SDS011;19359;51.402;6.778;2023-07-24T05:20:53;730.90;;;436.55;;
7783;SDS011;19359;51.402;6.778;2023-07-24T05:23:20;728.78;;;432.25;;
7783;SDS011;19359;51.402;6.778;2023-07-24T05:25:47;728.72;;;424.23;;
7783;SDS011;19359;51.402;6.778;2023-07-24T05:28:15;727.75;;;424.48;;
7783;SDS011;19359;51.402;6.778;2023-07-24T05:30:41;729.28;;;421.77;;
7783;SDS011;19359;51.402;6.778;2023-07-24T05:33:08;720.70;;;416.08;;
7783;SDS011;19359;51.402;6.778;2023-07-24T05:35:35;724.17;;;421.90;;
7783;SDS011;19359;51.402;6.778;2023-07-24T05:38:02;728.88;;;427.17;;
7783;SDS011;19359;51.402;6.778;2023-07-24T05:40:29;728.92;;;427.33;;
7783;SDS011;19359;51.402;6.778;2023-07-24T05:42:56;727.67;;;433.45;;
7783;SDS011;19359;51.402;6.778;2023-07-24T05:45:24;730.55;;;439.38;;
7783;SDS011;19359;51.402;6.778;2023-07-24T05:47:51;731.65;;;439.90;;
7783;SDS011;19359;51.402;6.778;2023-07-24T05:50:17;730.28;;;438.50;;
7783;SDS011;19359;51.402;6.778;2023-07-24T05:52:44;734.25;;;450.35;;
7783;SDS011;19359;51.402;6.778;2023-07-24T05:55:11;733.85;;;435.80;;
7783;SDS011;19359;51.402;6.778;2023-07-24T05:57:38;736.67;;;454.65;;
7783;SDS011;19359;51.402;6.778;2023-07-24T06:00:05;739.25;;;463.30;;
7783;SDS011;19359;51.402;6.778;2023-07-24T06:02:34;741.20;;;462.95;;
7783;SDS011;19359;51.402;6.778;2023-07-24T06:05:01;731.50;;;455.17;;
7783;SDS011;19359;51.402;6.778;2023-07-24T06:07:27;739.10;;;458.98;;
7783;SDS011;19359;51.402;6.778;2023-07-24T06:09:54;747.03;;;457.98;;
7783;SDS011;19359;51.402;6.778;2023-07-24T06:12:21;749.67;;;475.33;;
7783;SDS011;19359;51.402;6.778;2023-07-24T06:14:48;744.03;;;461.63;;
7783;SDS011;19359;51.402;6.778;2023-07-24T06:17:15;749.85;;;458.98;;
7783;SDS011;19359;51.402;6.778;2023-07-24T06:19:43;748.55;;;471.27;;
7783;SDS011;19359;51.402;6.778;2023-07-24T06:22:10;740.50;;;459.10;;
7783;SDS011;19359;51.402;6.778;2023-07-24T06:24:37;740.28;;;466.23;;
7783;SDS011;19359;51.402;6.778;2023-07-24T06:27:04;745.13;;;458.20;;
7783;SDS011;19359;51.402;6.778;2023-07-24T06:29:32;747.70;;;466.77;;
7783;SDS011;19359;51.402;6.778;2023-07-24T06:31:59;743.22;;;462.73;;
7783;SDS011;19359;51.402;6.778;2023-07-24T06:34:26;755.00;;;472.23;;
7783;SDS011;19359;51.402;6.778;2023-07-24T06:36:54;741.45;;;453.90;;
7783;SDS011;19359;51.402;6.778;2023-07-24T06:39:21;740.25;;;453.55;;
7783;SDS011;19359;51.402;6.778;2023-07-24T06:41:48;736.00;;;445.75;;
7783;SDS011;19359;51.402;6.778;2023-07-24T06:44:17;745.50;;;459.58;;
7783;SDS011;19359;51.402;6.778;2023-07-24T06:46:43;745.17;;;459.80;;
7783;SDS011;19359;51.402;6.778;2023-07-24T06:49:11;741.72;;;450.23;;
7783;SDS011;19359;51.402;6.778;2023-07-24T06:51:38;740.20;;;442.95;;
7783;SDS011;19359;51.402;6.778;2023-07-24T06:54:06;739.10;;;456.30;;
7783;SDS011;19359;51.402;6.778;2023-07-24T06:56:32;749.80;;;463.58;;
7783;SDS011;19359;51.402;6.778;2023-07-24T06:59:00;750.63;;;467.77;;
7783;SDS011;19359;51.402;6.778;2023-07-24T07:01:26;747.63;;;474.85;;
7783;SDS011;19359;51.402;6.778;2023-07-24T07:03:53;749.38;;;472.45;;
7783;SDS011;19359;51.402;6.778;2023-07-24T07:06:20;749.83;;;473.70;;
7783;SDS011;19359;51.402;6.778;2023-07-24T07:08:47;762.25;;;472.85;;
7783;SDS011;19359;51.402;6.778;2023-07-24T07:11:16;763.55;;;482.95;;
7783;SDS011;19359;51.402;6.778;2023-07-24T07:13:42;769.50;;;477.88;;
7783;SDS011;19359;51.402;6.778;2023-07-24T07:16:09;753.28;;;460.50;;
7783;SDS011;19359;51.402;6.778;2023-07-24T07:18:36;757.08;;;467.63;;
7783;SDS011;19359;51.402;6.778;2023-07-24T07:21:03;752.45;;;460.33;;
7783;SDS011;19359;51.402;6.778;2023-07-24T07:23:30;745.33;;;445.05;;
7783;SDS011;19359;51.402;6.778;2023-07-24T07:25:57;757.83;;;480.88;;
7783;SDS011;19359;51.402;6.778;2023-07-24T07:28:26;757.53;;;463.02;;
7783;SDS011;19359;51.402;6.778;2023-07-24T07:30:53;753.08;;;464.77;;
7783;SDS011;19359;51.402;6.778;2023-07-24T07:33:20;761.03;;;470.90;;
7783;SDS011;19359;51.402;6.778;2023-07-24T07:35:47;754.30;;;473.45;;
7783;SDS011;19359;51.402;6.778;2023-07-24T07:38:14;754.60;;;475.25;;
7783;SDS011;19359;51.402;6.778;2023-07-24T07:40:41;760.38;;;478.00;;
7783;SDS011;19359;51.402;6.778;2023-07-24T07:43:08;755.70;;;480.58;;
7783;SDS011;19359;51.402;6.778;2023-07-24T07:45:36;755.00;;;479.92;;
7783;SDS011;19359;51.402;6.778;2023-07-24T07:48:04;756.65;;;472.13;;
7783;SDS011;19359;51.402;6.778;2023-07-24T07:50:31;755.95;;;469.60;;
7783;SDS011;19359;51.402;6.778;2023-07-24T07:52:58;759.78;;;474.80;;
7783;SDS011;19359;51.402;6.778;2023-07-24T07:55:25;750.33;;;461.58;;
7783;SDS011;19359;51.402;6.778;2023-07-24T07:57:52;745.35;;;464.83;;
7783;SDS011;19359;51.402;6.778;2023-07-24T08:00:19;736.22;;;444.80;;
7783;SDS011;19359;51.402;6.778;2023-07-24T08:02:48;744.03;;;465.33;;
7783;SDS011;19359;51.402;6.778;2023-07-24T08:05:15;740.58;;;458.33;;
7783;SDS011;19359;51.402;6.778;2023-07-24T08:07:42;745.40;;;469.98;;
7783;SDS011;19359;51.402;6.778;2023-07-24T08:10:08;734.17;;;451.58;;
7783;SDS011;19359;51.402;6.778;2023-07-24T08:12:35;744.10;;;463.17;;
7783;SDS011;19359;51.402;6.778;2023-07-24T08:15:03;756.38;;;472.65;;
7783;SDS011;19359;51.402;6.778;2023-07-24T08:17:30;753.72;;;468.00;;
7783;SDS011;19359;51.402;6.778;2023-07-24T08:19:58;754.45;;;474.58;;
7783;SDS011;19359;51.402;6.778;2023-07-24T08:22:25;756.92;;;490.25;;
7783;SDS011;19359;51.402;6.778;2023-07-24T08:24:52;766.33;;;475.73;;
7783;SDS011;19359;51.402;6.778;2023-07-24T08:27:19;760.60;;;480.75;;
7783;SDS011;19359;51.402;6.778;2023-07-24T08:29:46;756.70;;;488.35;;
7783;SDS011;19359;51.402;6.778;2023-07-24T08:32:17;749.97;;;470.83;;
7783;SDS011;19359;51.402;6.778;2023-07-24T08:34:44;758.17;;;481.00;;
7783;SDS011;19359;51.402;6.778;2023-07-24T08:37:15;756.80;;;476.77;;
7783;SDS011;19359;51.402;6.778;2023-07-24T08:39:41;756.63;;;480.83;;
7783;SDS011;19359;51.402;6.778;2023-07-24T08:42:09;743.72;;;467.10;;
7783;SDS011;19359;51.402;6.778;2023-07-24T08:44:36;755.20;;;491.17;;
7783;SDS011;19359;51.402;6.778;2023-07-24T08:47:04;755.50;;;498.45;;
7783;SDS011;19359;51.402;6.778;2023-07-24T08:49:35;758.80;;;505.33;;
7783;SDS011;19359;51.402;6.778;2023-07-24T08:52:05;759.65;;;495.80;;
7783;SDS011;19359;51.402;6.778;2023-07-24T08:54:34;788.20;;;525.58;;
7783;SDS011;19359;51.402;6.778;2023-07-24T08:57:02;774.60;;;516.00;;
7783;SDS011;19359;51.402;6.778;2023-07-24T08:59:31;777.97;;;528.20;;
7783;SDS011;19359;51.402;6.778;2023-07-24T09:01:58;778.47;;;519.33;;
7783;SDS011;19359;51.402;6.778;2023-07-24T09:04:25;787.15;;;528.47;;
7783;SDS011;19359;51.402;6.778;2023-07-24T09:06:52;771.00;;;511.70;;
7783;SDS011;19359;51.402;6.778;2023-07-24T09:09:19;784.63;;;536.65;;
7783;SDS011;19359;51.402;6.778;2023-07-24T09:11:48;768.83;;;502.13;;
7783;SDS011;19359;51.402;6.778;2023-07-24T09:14:25;787.88;;;524.92;;
7783;SDS011;19359;51.402;6.778;2023-07-24T09:17:04;770.35;;;511.90;;
7783;SDS011;19359;51.402;6.778;2023-07-24T09:19:31;792.40;;;533.85;;
7783;SDS011;19359;51.402;6.778;2023-07-24T09:22:07;797.22;;;530.20;;
7783;SDS011;19359;51.402;6.778;2023-07-24T09:24:35;776.72;;;506.05;;
7783;SDS011;19359;51.402;6.778;2023-07-24T09:27:04;776.90;;;523.83;;
7783;SDS011;19359;51.402;6.778;2023-07-24T09:29:32;780.10;;;526.85;;
7783;SDS011;19359;51.402;6.778;2023-07-24T09:31:59;774.58;;;517.45;;
7783;SDS011;19359;51.402;6.778;2023-07-24T09:34:26;792.97;;;534.90;;
7783;SDS011;19359;51.402;6.778;2023-07-24T09:36:53;790.97;;;539.85;;
7783;SDS011;19359;51.402;6.778;2023-07-24T09:39:22;784.72;;;522.05;;
7783;SDS011;19359;51.402;6.778;2023-07-24T09:41:49;780.90;;;520.13;;
7783;SDS011;19359;51.402;6.778;2023-07-24T09:44:18;792.78;;;536.13;;
7783;SDS011;19359;51.402;6.778;2023-07-24T09:46:45;775.08;;;523.85;;
7783;SDS011;19359;51.402;6.778;2023-07-24T09:49:12;793.25;;;540.15;;
7783;SDS011;19359;51.402;6.778;2023-07-24T09:51:39;788.95;;;544.53;;
7783;SDS011;19359;51.402;6.778;2023-07-24T09:54:12;791.05;;;547.65;;
7783;SDS011;19359;51.402;6.778;2023-07-24T09:56:42;796.83;;;546.17;;
7783;SDS011;19359;51.402;6.778;2023-07-24T09:59:10;789.47;;;547.38;;
7783;SDS011;19359;51.402;6.778;2023-07-24T10:01:40;794.65;;;554.42;;
7783;SDS011;19359;51.402;6.778;2023-07-24T10:04:07;788.92;;;555.97;;
7783;SDS011;19359;51.402;6.778;2023-07-24T10:06:35;793.63;;;565.40;;
7783;SDS011;19359;51.402;6.778;2023-07-24T10:09:02;797.08;;;569.10;;
7783;SDS011;19359;51.402;6.778;2023-07-24T10:11:29;804.95;;;579.80;;
7783;SDS011;19359;51.402;6.778;2023-07-24T10:13:57;795.05;;;576.92;;
7783;SDS011;19359;51.402;6.778;2023-07-24T10:16:24;811.95;;;602.30;;
7783;SDS011;19359;51.402;6.778;2023-07-24T10:18:52;804.13;;;600.42;;
7783;SDS011;19359;51.402;6.778;2023-07-24T10:21:25;821.03;;;629.45;;
7783;SDS011;19359;51.402;6.778;2023-07-24T10:23:53;805.85;;;621.65;;
7783;SDS011;19359;51.402;6.778;2023-07-24T10:26:24;806.55;;;619.40;;
7783;SDS011;19359;51.402;6.778;2023-07-24T10:28:51;809.20;;;627.88;;
7783;SDS011;19359;51.402;6.778;2023-07-24T10:31:19;805.80;;;617.22;;
7783;SDS011;19359;51.402;6.778;2023-07-24T10:33:47;815.53;;;633.10;;
7783;SDS011;19359;51.402;6.778;2023-07-24T10:36:17;810.75;;;615.67;;
7783;SDS011;19359;51.402;6.778;2023-07-24T10:38:45;796.88;;;594.67;;
7783;SDS011;19359;51.402;6.778;2023-07-24T10:41:12;802.28;;;589.55;;
7783;SDS011;19359;51.402;6.778;2023-07-24T10:43:40;800.28;;;576.22;;
7783;SDS011;19359;51.402;6.778;2023-07-24T10:46:08;797.42;;;573.95;;
7783;SDS011;19359;51.402;6.778;2023-07-24T10:48:35;795.17;;;572.67;;
7783;SDS011;19359;51.402;6.778;2023-07-24T10:51:05;795.88;;;577.90;;
7783;SDS011;19359;51.402;6.778;2023-07-24T10:53:35;797.83;;;577.42;;
7783;SDS011;19359;51.402;6.778;2023-07-24T10:56:03;790.47;;;566.97;;
7783;SDS011;19359;51.402;6.778;2023-07-24T10:58:31;786.17;;;555.45;;
7783;SDS011;19359;51.402;6.778;2023-07-24T11:00:58;790.17;;;567.88;;
7783;SDS011;19359;51.402;6.778;2023-07-24T11:03:25;774.92;;;538.58;;
7783;SDS011;19359;51.402;6.778;2023-07-24T11:05:52;791.65;;;542.10;;
7783;SDS011;19359;51.402;6.778;2023-07-24T11:08:20;784.58;;;539.47;;
7783;SDS011;19359;51.402;6.778;2023-07-24T11:10:49;795.53;;;546.25;;
7783;SDS011;19359;51.402;6.778;2023-07-24T11:13:17;783.53;;;527.33;;
7783;SDS011;19359;51.402;6.778;2023-07-24T11:15:45;781.45;;;513.67;;
7783;SDS011;19359;51.402;6.778;2023-07-24T11:18:12;779.42;;;516.67;;
7783;SDS011;19359;51.402;6.778;2023-07-24T11:20:43;781.10;;;512.28;;
7783;SDS011;19359;51.402;6.778;2023-07-24T11:23:10;784.63;;;512.67;;
7783;SDS011;19359;51.402;6.778;2023-07-24T11:25:37;779.80;;;493.13;;
7783;SDS011;19359;51.402;6.778;2023-07-24T11:28:06;768.92;;;488.35;;
7783;SDS011;19359;51.402;6.778;2023-07-24T11:30:33;764.05;;;492.55;;
7783;SDS011;19359;51.402;6.778;2023-07-24T11:33:01;754.65;;;464.70;;
7783;SDS011;19359;51.402;6.778;2023-07-24T11:35:29;752.40;;;459.38;;
7783;SDS011;19359;51.402;6.778;2023-07-24T11:37:56;749.80;;;456.35;;
7783;SDS011;19359;51.402;6.778;2023-07-24T11:40:30;748.58;;;457.27;;
7783;SDS011;19359;51.402;6.778;2023-07-24T11:42:58;741.10;;;442.00;;
7783;SDS011;19359;51.402;6.778;2023-07-24T11:45:26;746.00;;;451.25;;
7783;SDS011;19359;51.402;6.778;2023-07-24T11:47:53;754.35;;;463.08;;
7783;SDS011;19359;51.402;6.778;2023-07-24T11:50:21;750.22;;;460.80;;
7783;SDS011;19359;51.402;6.778;2023-07-24T11:52:49;740.30;;;448.27;;
7783;SDS011;19359;51.402;6.778;2023-07-24T11:55:17;738.28;;;447.77;;
7783;SDS011;19359;51.402;6.778;2023-07-24T11:57:54;749.47;;;458.08;;
7783;SDS011;19359;51.402;6.778;2023-07-24T12:00:22;737.83;;;458.23;;
7783;SDS011;19359;51.402;6.778;2023-07-24T12:02:50;738.25;;;469.17;;
7783;SDS011;19359;51.402;6.778;2023-07-24T12:05:18;739.72;;;474.23;;
7783;SDS011;19359;51.402;6.778;2023-07-24T12:07:45;737.10;;;482.40;;
7783;SDS011;19359;51.402;6.778;2023-07-24T12:10:12;747.75;;;500.20;;
7783;SDS011;19359;51.402;6.778;2023-07-24T12:12:40;759.40;;;523.83;;
7783;SDS011;19359;51.402;6.778;2023-07-24T12:15:09;760.17;;;529.97;;
7783;SDS011;19359;51.402;6.778;2023-07-24T12:17:36;759.25;;;535.45;;
7783;SDS011;19359;51.402;6.778;2023-07-24T12:20:06;769.17;;;547.30;;
7783;SDS011;19359;51.402;6.778;2023-07-24T12:22:35;783.60;;;571.22;;
7783;SDS011;19359;51.402;6.778;2023-07-24T12:25:03;786.38;;;559.22;;
7783;SDS011;19359;51.402;6.778;2023-07-24T12:27:30;785.15;;;554.45;;
7783;SDS011;19359;51.402;6.778;2023-07-24T12:29:57;778.88;;;549.90;;
7783;SDS011;19359;51.402;6.778;2023-07-24T12:32:24;781.80;;;537.90;;
7783;SDS011;19359;51.402;6.778;2023-07-24T12:34:51;777.78;;;528.50;;
7783;SDS011;19359;51.402;6.778;2023-07-24T12:37:19;776.67;;;523.42;;
7783;SDS011;19359;51.402;6.778;2023-07-24T12:39:47;774.30;;;518.70;;
7783;SDS011;19359;51.402;6.778;2023-07-24T12:42:14;780.28;;;518.03;;
7783;SDS011;19359;51.402;6.778;2023-07-24T12:44:42;778.28;;;518.08;;
7783;SDS011;19359;51.402;6.778;2023-07-24T12:47:09;764.15;;;501.83;;
7783;SDS011;19359;51.402;6.778;2023-07-24T12:49:37;775.55;;;518.83;;
7783;SDS011;19359;51.402;6.778;2023-07-24T12:52:04;789.83;;;540.90;;
7783;SDS011;19359;51.402;6.778;2023-07-24T12:54:33;780.10;;;528.17;;
7783;SDS011;19359;51.402;6.778;2023-07-24T12:57:01;795.80;;;565.22;;
7783;SDS011;19359;51.402;6.778;2023-07-24T12:59:28;808.35;;;596.20;;
7783;SDS011;19359;51.402;6.778;2023-07-24T13:01:55;797.28;;;589.83;;
7783;SDS011;19359;51.402;6.778;2023-07-24T13:04:22;799.92;;;599.63;;
7783;SDS011;19359;51.402;6.778;2023-07-24T13:06:49;812.33;;;612.35;;
7783;SDS011;19359;51.402;6.778;2023-07-24T13:09:17;808.40;;;623.25;;
7783;SDS011;19359;51.402;6.778;2023-07-24T13:11:45;802.50;;;616.78;;
7783;SDS011;19359;51.402;6.778;2023-07-24T13:14:13;804.65;;;617.72;;
7783;SDS011;19359;51.402;6.778;2023-07-24T13:16:41;807.47;;;636.38;;
7783;SDS011;19359;51.402;6.778;2023-07-24T13:19:07;834.10;;;679.78;;
7783;SDS011;19359;51.402;6.778;2023-07-24T13:21:34;831.42;;;699.67;;
7783;SDS011;19359;51.402;6.778;2023-07-24T13:24:01;844.63;;;725.95;;
7783;SDS011;19359;51.402;6.778;2023-07-24T13:26:28;836.97;;;731.80;;
7783;SDS011;19359;51.402;6.778;2023-07-24T13:28:56;855.45;;;761.05;;
7783;SDS011;19359;51.402;6.778;2023-07-24T13:31:23;869.05;;;774.33;;
7783;SDS011;19359;51.402;6.778;2023-07-24T13:33:50;886.25;;;790.85;;
7783;SDS011;19359;51.402;6.778;2023-07-24T13:36:16;903.63;;;806.95;;
7783;SDS011;19359;51.402;6.778;2023-07-24T13:38:43;919.83;;;823.42;;
7783;SDS011;19359;51.402;6.778;2023-07-24T13:41:10;908.22;;;812.38;;
7783;SDS011;19359;51.402;6.778;2023-07-24T13:43:37;903.65;;;807.30;;
7783;SDS011;19359;51.402;6.778;2023-07-24T13:46:05;898.72;;;803.33;;
7783;SDS011;19359;51.402;6.778;2023-07-24T13:48:33;885.75;;;790.35;;
7783;SDS011;19359;51.402;6.778;2023-07-24T13:51:00;879.53;;;784.50;;
7783;SDS011;19359;51.402;6.778;2023-07-24T13:53:26;896.00;;;800.63;;
7783;SDS011;19359;51.402;6.778;2023-07-24T13:55:53;889.80;;;794.78;;
7783;SDS011;19359;51.402;6.778;2023-07-24T13:58:20;894.90;;;798.30;;
7783;SDS011;19359;51.402;6.778;2023-07-24T14:00:47;877.40;;;782.88;;
7783;SDS011;19359;51.402;6.778;2023-07-24T14:03:15;869.50;;;774.92;;
7783;SDS011;19359;51.402;6.778;2023-07-24T14:05:42;890.80;;;789.13;;
7783;SDS011;19359;51.402;6.778;2023-07-24T14:08:08;841.70;;;743.92;;
7783;SDS011;19359;51.402;6.778;2023-07-24T14:10:36;834.42;;;733.60;;